sensor_id;sensor_type;location;lat;lon;timestamp;pressure;altitude;pressure_sealevel;temperature;humidity
40982;BME280;26708;50.304;19.028;2022-12-18T00:00:47;99814.19;;;-1.12;57.97
40982;BME280;26708;50.304;19.028;2022-12-18T00:02:52;99805.69;;;-1.11;57.84
40982;BME280;26708;50.304;19.028;2022-12-18T00:04:57;99811.13;;;-1.07;57.79
40982;BME280;26708;50.304;19.028;2022-12-18T00:07:01;99617.47;;;-2.19;57.78
40982;BME280;26708;50.304;19.028;2022-12-18T00:09:06;99798.19;;;-1.21;57.61
40982;BME280;26708;50.304;19.028;2022-12-18T00:11:13;99818.31;;;-1.14;57.90
40982;BME280;26708;50.304;19.028;2022-12-18T00:13:19;99686.38;;;-1.97;57.79
40982;BME280;26708;50.304;19.028;2022-12-18T00:15:27;99802.22;;;-1.12;57.84
40982;BME280;26708;50.304;19.028;2022-12-18T00:17:31;99818.91;;;-1.05;57.60
40982;BME280;26708;50.304;19.028;2022-12-18T00:19:36;99823.16;;;-1.06;57.42
40982;BME280;26708;50.304;19.028;2022-12-18T00:21:42;99720.09;;;-1.78;57.50
40982;BME280;26708;50.304;19.028;2022-12-18T00:23:49;99826.69;;;-1.04;57.38
40982;BME280;26708;50.304;19.028;2022-12-18T00:25:54;99597.69;;;-2.34;57.34
40982;BME280;26708;50.304;19.028;2022-12-18T00:27:59;99825.22;;;-1.00;57.48
40982;BME280;26708;50.304;19.028;2022-12-18T00:30:05;99816.44;;;-1.04;57.56
40982;BME280;26708;50.304;19.028;2022-12-18T00:32:13;99767.81;;;-1.28;57.48
40982;BME280;26708;50.304;19.028;2022-12-18T00:34:19;99689.72;;;-1.85;57.52
40982;BME280;26708;50.304;19.028;2022-12-18T00:36:25;99828.16;;;-0.94;57.19
40982;BME280;26708;50.304;19.028;2022-12-18T00:38:33;99772.03;;;-1.29;57.35
40982;BME280;26708;50.304;19.028;2022-12-18T00:40:38;99824.63;;;-0.96;57.31
40982;BME280;26708;50.304;19.028;2022-12-18T00:42:43;99835.69;;;-0.97;57.17
40982;BME280;26708;50.304;19.028;2022-12-18T00:44:57;99746.22;;;-1.58;57.20
40982;BME280;26708;50.304;19.028;2022-12-18T00:47:02;99837.88;;;-1.16;57.26
40982;BME280;26708;50.304;19.028;2022-12-18T00:49:09;99784.41;;;-1.49;56.86
40982;BME280;26708;50.304;19.028;2022-12-18T00:51:13;99844.81;;;-1.28;57.13
40982;BME280;26708;50.304;19.028;2022-12-18T00:53:19;99657.72;;;-2.18;57.09
40982;BME280;26708;50.304;19.028;2022-12-18T00:55:23;99806.09;;;-1.31;57.12
40982;BME280;26708;50.304;19.028;2022-12-18T00:57:28;99712.03;;;-1.97;57.25
40982;BME280;26708;50.304;19.028;2022-12-18T00:59:33;99844.50;;;-1.20;56.87
40982;BME280;26708;50.304;19.028;2022-12-18T01:01:37;99754.03;;;-1.82;57.04
40982;BME280;26708;50.304;19.028;2022-12-18T01:03:42;99870.28;;;-1.05;57.22
40982;BME280;26708;50.304;19.028;2022-12-18T01:05:51;99685.69;;;-2.08;57.43
40982;BME280;26708;50.304;19.028;2022-12-18T01:07:56;99733.72;;;-1.79;57.22
40982;BME280;26708;50.304;19.028;2022-12-18T01:10:01;99886.25;;;-0.96;57.11
40982;BME280;26708;50.304;19.028;2022-12-18T01:12:06;99763.50;;;-1.81;56.82
40982;BME280;26708;50.304;19.028;2022-12-18T01:14:11;99869.94;;;-1.10;56.87
40982;BME280;26708;50.304;19.028;2022-12-18T01:16:17;99761.31;;;-1.75;56.75
40982;BME280;26708;50.304;19.028;2022-12-18T01:18:22;99882.78;;;-1.10;56.97
40982;BME280;26708;50.304;19.028;2022-12-18T01:20:27;99879.34;;;-1.10;57.23
40982;BME280;26708;50.304;19.028;2022-12-18T01:22:34;99800.47;;;-1.65;57.04
40982;BME280;26708;50.304;19.028;2022-12-18T01:24:39;99881.03;;;-1.11;57.58
40982;BME280;26708;50.304;19.028;2022-12-18T01:26:43;99886.16;;;-1.11;57.56
40982;BME280;26708;50.304;19.028;2022-12-18T01:28:49;99872.06;;;-1.17;57.79
40982;BME280;26708;50.304;19.028;2022-12-18T01:30:55;99735.69;;;-2.01;57.55
40982;BME280;26708;50.304;19.028;2022-12-18T01:33:00;99833.94;;;-1.37;57.56
40982;BME280;26708;50.304;19.028;2022-12-18T01:35:05;99857.84;;;-1.25;57.35
40982;BME280;26708;50.304;19.028;2022-12-18T01:37:12;99751.38;;;-1.84;57.54
40982;BME280;26708;50.304;19.028;2022-12-18T01:39:19;99691.72;;;-2.20;57.37
40982;BME280;26708;50.304;19.028;2022-12-18T01:41:27;99888.16;;;-1.07;57.36
40982;BME280;26708;50.304;19.028;2022-12-18T01:43:56;99889.81;;;-1.07;57.54
40982;BME280;26708;50.304;19.028;2022-12-18T01:46:01;99894.16;;;-1.06;57.61
40982;BME280;26708;50.304;19.028;2022-12-18T01:48:08;99879.13;;;-1.13;57.42
40982;BME280;26708;50.304;19.028;2022-12-18T01:50:18;99778.50;;;-1.87;57.41
40982;BME280;26708;50.304;19.028;2022-12-18T01:52:28;99900.09;;;-1.07;57.68
40982;BME280;26708;50.304;19.028;2022-12-18T01:54:39;99769.53;;;-1.94;57.66
40982;BME280;26708;50.304;19.028;2022-12-18T01:56:45;99790.03;;;-1.81;57.81
40982;BME280;26708;50.304;19.028;2022-12-18T01:58:54;99903.72;;;-1.04;57.80
40982;BME280;26708;50.304;19.028;2022-12-18T02:01:04;99895.03;;;-1.19;57.90
40982;BME280;26708;50.304;19.028;2022-12-18T02:03:09;99754.63;;;-1.86;57.66
40982;BME280;26708;50.304;19.028;2022-12-18T02:05:17;99833.16;;;-1.62;57.40
40982;BME280;26708;50.304;19.028;2022-12-18T02:07:42;99834.72;;;-1.64;57.52
40982;BME280;26708;50.304;19.028;2022-12-18T02:10:02;99925.38;;;-1.00;57.82
40982;BME280;26708;50.304;19.028;2022-12-18T02:12:17;99926.16;;;-1.01;57.71
40982;BME280;26708;50.304;19.028;2022-12-18T02:14:33;99893.66;;;-1.27;57.78
40982;BME280;26708;50.304;19.028;2022-12-18T02:16:53;99952.03;;;-0.98;57.81
40982;BME280;26708;50.304;19.028;2022-12-18T02:19:21;99764.94;;;-2.11;57.78
40982;BME280;26708;50.304;19.028;2022-12-18T02:21:49;99864.16;;;-1.59;57.84
40982;BME280;26708;50.304;19.028;2022-12-18T02:24:18;99951.94;;;-1.00;57.67
40982;BME280;26708;50.304;19.028;2022-12-18T02:26:41;99842.25;;;-1.67;58.00
40982;BME280;26708;50.304;19.028;2022-12-18T02:28:56;99829.78;;;-1.87;57.78
40982;BME280;26708;50.304;19.028;2022-12-18T02:31:14;99865.91;;;-1.71;57.73
40982;BME280;26708;50.304;19.028;2022-12-18T02:33:28;99841.63;;;-1.76;57.77
40982;BME280;26708;50.304;19.028;2022-12-18T02:35:36;99959.81;;;-1.10;57.85
40982;BME280;26708;50.304;19.028;2022-12-18T02:37:46;99915.69;;;-1.30;57.68
40982;BME280;26708;50.304;19.028;2022-12-18T02:40:02;99936.81;;;-1.21;58.00
40982;BME280;26708;50.304;19.028;2022-12-18T02:42:15;99738.31;;;-2.39;57.98
40982;BME280;26708;50.304;19.028;2022-12-18T02:44:23;99949.66;;;-1.21;58.08
40982;BME280;26708;50.304;19.028;2022-12-18T02:46:33;99832.91;;;-2.04;58.14
40982;BME280;26708;50.304;19.028;2022-12-18T02:48:44;99969.72;;;-1.16;58.34
40982;BME280;26708;50.304;19.028;2022-12-18T02:50:58;99874.31;;;-1.61;58.12
40982;BME280;26708;50.304;19.028;2022-12-18T02:53:18;99879.09;;;-1.78;58.10
40982;BME280;26708;50.304;19.028;2022-12-18T02:55:44;99812.41;;;-2.04;57.94
40982;BME280;26708;50.304;19.028;2022-12-18T02:58:07;99846.22;;;-1.97;58.17
40982;BME280;26708;50.304;19.028;2022-12-18T03:00:23;99845.34;;;-1.97;58.06
40982;BME280;26708;50.304;19.028;2022-12-18T03:02:39;99985.84;;;-1.05;58.21
40982;BME280;26708;50.304;19.028;2022-12-18T03:04:53;99886.63;;;-1.68;57.96
40982;BME280;26708;50.304;19.028;2022-12-18T03:07:07;99892.84;;;-1.78;58.06
40982;BME280;26708;50.304;19.028;2022-12-18T03:09:21;99844.56;;;-1.96;57.74
40982;BME280;26708;50.304;19.028;2022-12-18T03:11:38;99869.03;;;-1.88;58.07
40982;BME280;26708;50.304;19.028;2022-12-18T03:14:07;99922.44;;;-1.57;58.44
40982;BME280;26708;50.304;19.028;2022-12-18T03:16:19;99951.00;;;-1.39;58.41
40982;BME280;26708;50.304;19.028;2022-12-18T03:18:32;100013.75;;;-1.10;58.25
40982;BME280;26708;50.304;19.028;2022-12-18T03:20:45;100011.09;;;-1.11;58.16
40982;BME280;26708;50.304;19.028;2022-12-18T03:23:02;99884.97;;;-1.92;58.09
40982;BME280;26708;50.304;19.028;2022-12-18T03:25:14;99795.50;;;-2.51;58.40
40982;BME280;26708;50.304;19.028;2022-12-18T03:27:24;100006.13;;;-1.21;58.46
40982;BME280;26708;50.304;19.028;2022-12-18T03:29:40;99955.91;;;-1.55;58.43
40982;BME280;26708;50.304;19.028;2022-12-18T03:31:56;100005.13;;;-1.23;58.67
40982;BME280;26708;50.304;19.028;2022-12-18T03:34:13;100002.38;;;-1.26;58.35
40982;BME280;26708;50.304;19.028;2022-12-18T03:36:23;100009.28;;;-1.25;58.60
40982;BME280;26708;50.304;19.028;2022-12-18T03:38:28;100011.66;;;-1.28;58.29
40982;BME280;26708;50.304;19.028;2022-12-18T03:40:43;99926.13;;;-1.91;58.66
40982;BME280;26708;50.304;19.028;2022-12-18T03:43:02;99917.94;;;-1.85;58.58
40982;BME280;26708;50.304;19.028;2022-12-18T03:45:21;99970.63;;;-1.53;58.82
40982;BME280;26708;50.304;19.028;2022-12-18T03:47:38;100039.00;;;-1.29;58.70
40982;BME280;26708;50.304;19.028;2022-12-18T03:49:57;100024.50;;;-1.28;58.67
40982;BME280;26708;50.304;19.028;2022-12-18T03:52:16;99757.94;;;-2.88;58.65
40982;BME280;26708;50.304;19.028;2022-12-18T03:54:28;100021.81;;;-1.30;58.65
40982;BME280;26708;50.304;19.028;2022-12-18T03:56:49;100015.47;;;-1.48;58.63
40982;BME280;26708;50.304;19.028;2022-12-18T03:59:04;99979.50;;;-1.61;58.76
40982;BME280;26708;50.304;19.028;2022-12-18T04:01:15;99805.44;;;-2.56;58.89
40982;BME280;26708;50.304;19.028;2022-12-18T04:03:24;99990.06;;;-1.56;58.61
40982;BME280;26708;50.304;19.028;2022-12-18T04:05:34;100037.13;;;-1.31;58.58
40982;BME280;26708;50.304;19.028;2022-12-18T04:07:45;100042.13;;;-1.33;58.63
40982;BME280;26708;50.304;19.028;2022-12-18T04:09:56;99826.25;;;-2.51;58.57
40982;BME280;26708;50.304;19.028;2022-12-18T04:12:06;100040.34;;;-1.34;58.60
40982;BME280;26708;50.304;19.028;2022-12-18T04:14:16;99913.53;;;-2.12;58.61
40982;BME280;26708;50.304;19.028;2022-12-18T04:16:27;99841.63;;;-2.51;58.90
40982;BME280;26708;50.304;19.028;2022-12-18T04:18:36;99876.19;;;-2.33;58.58
40982;BME280;26708;50.304;19.028;2022-12-18T04:20:42;99953.03;;;-1.97;58.61
40982;BME280;26708;50.304;19.028;2022-12-18T04:22:47;99944.59;;;-2.08;58.75
40982;BME280;26708;50.304;19.028;2022-12-18T04:24:54;100051.53;;;-1.33;59.03
40982;BME280;26708;50.304;19.028;2022-12-18T04:27:06;100035.47;;;-1.55;58.97
40982;BME280;26708;50.304;19.028;2022-12-18T04:29:17;100010.84;;;-1.65;58.89
40982;BME280;26708;50.304;19.028;2022-12-18T04:31:22;100056.25;;;-1.39;58.69
40982;BME280;26708;50.304;19.028;2022-12-18T04:33:30;99924.63;;;-2.25;59.01
40982;BME280;26708;50.304;19.028;2022-12-18T04:35:35;99953.75;;;-2.11;58.90
40982;BME280;26708;50.304;19.028;2022-12-18T04:37:40;100038.66;;;-1.46;58.92
40982;BME280;26708;50.304;19.028;2022-12-18T04:39:46;100015.53;;;-1.59;58.78
40982;BME280;26708;50.304;19.028;2022-12-18T04:41:58;99980.16;;;-1.88;58.79
40982;BME280;26708;50.304;19.028;2022-12-18T04:44:03;99983.44;;;-1.90;58.76
40982;BME280;26708;50.304;19.028;2022-12-18T04:46:09;100021.47;;;-1.72;58.73
40982;BME280;26708;50.304;19.028;2022-12-18T04:48:14;100017.00;;;-1.63;58.82
40982;BME280;26708;50.304;19.028;2022-12-18T04:50:21;100086.50;;;-1.22;58.78
40982;BME280;26708;50.304;19.028;2022-12-18T04:52:26;100103.91;;;-1.18;58.71
40982;BME280;26708;50.304;19.028;2022-12-18T04:54:31;99954.56;;;-1.99;58.79
40982;BME280;26708;50.304;19.028;2022-12-18T04:56:35;100094.75;;;-1.15;58.86
40982;BME280;26708;50.304;19.028;2022-12-18T04:58:43;100013.69;;;-1.73;58.41
40982;BME280;26708;50.304;19.028;2022-12-18T05:00:48;99890.56;;;-2.35;58.21
40982;BME280;26708;50.304;19.028;2022-12-18T05:02:52;99999.09;;;-1.74;58.26
40982;BME280;26708;50.304;19.028;2022-12-18T05:04:57;99967.03;;;-1.92;58.19
40982;BME280;26708;50.304;19.028;2022-12-18T05:07:05;99996.00;;;-1.82;58.24
40982;BME280;26708;50.304;19.028;2022-12-18T05:09:09;100011.25;;;-1.83;58.27
40982;BME280;26708;50.304;19.028;2022-12-18T05:11:15;100077.56;;;-1.40;58.44
40982;BME280;26708;50.304;19.028;2022-12-18T05:13:19;100120.31;;;-1.16;58.34
40982;BME280;26708;50.304;19.028;2022-12-18T05:15:24;100120.97;;;-1.19;58.09
40982;BME280;26708;50.304;19.028;2022-12-18T05:17:31;100126.13;;;-1.19;58.51
40982;BME280;26708;50.304;19.028;2022-12-18T05:19:50;100129.34;;;-1.21;58.30
40982;BME280;26708;50.304;19.028;2022-12-18T05:21:55;100122.56;;;-1.21;58.49
40982;BME280;26708;50.304;19.028;2022-12-18T05:24:04;99916.53;;;-2.42;58.30
40982;BME280;26708;50.304;19.028;2022-12-18T05:26:15;100107.53;;;-1.28;58.39
40982;BME280;26708;50.304;19.028;2022-12-18T05:28:22;100058.97;;;-1.49;58.54
40982;BME280;26708;50.304;19.028;2022-12-18T05:30:28;100122.88;;;-1.16;58.60
40982;BME280;26708;50.304;19.028;2022-12-18T05:32:33;100133.16;;;-1.16;58.52
40982;BME280;26708;50.304;19.028;2022-12-18T05:34:37;100107.72;;;-1.25;58.69
40982;BME280;26708;50.304;19.028;2022-12-18T05:36:43;100137.41;;;-1.17;58.62
40982;BME280;26708;50.304;19.028;2022-12-18T05:38:47;99939.56;;;-2.31;58.71
40982;BME280;26708;50.304;19.028;2022-12-18T05:40:55;100145.00;;;-1.18;58.61
40982;BME280;26708;50.304;19.028;2022-12-18T05:43:01;100084.31;;;-1.54;58.49
40982;BME280;26708;50.304;19.028;2022-12-18T05:45:06;100127.63;;;-1.34;58.62
40982;BME280;26708;50.304;19.028;2022-12-18T05:47:11;100079.56;;;-1.61;58.84
40982;BME280;26708;50.304;19.028;2022-12-18T05:49:17;100140.78;;;-1.29;58.67
40982;BME280;26708;50.304;19.028;2022-12-18T05:51:22;100073.16;;;-1.79;58.61
40982;BME280;26708;50.304;19.028;2022-12-18T05:53:26;100148.47;;;-1.29;58.72
40982;BME280;26708;50.304;19.028;2022-12-18T05:55:33;100127.25;;;-1.40;59.03
40982;BME280;26708;50.304;19.028;2022-12-18T05:57:40;100078.81;;;-1.71;59.01
40982;BME280;26708;50.304;19.028;2022-12-18T05:59:45;100144.94;;;-1.31;59.08
40982;BME280;26708;50.304;19.028;2022-12-18T06:01:50;100152.16;;;-1.26;59.04
40982;BME280;26708;50.304;19.028;2022-12-18T06:03:55;100118.19;;;-1.46;58.95
40982;BME280;26708;50.304;19.028;2022-12-18T06:05:59;100154.63;;;-1.27;59.21
40982;BME280;26708;50.304;19.028;2022-12-18T06:08:05;100153.06;;;-1.25;59.14
40982;BME280;26708;50.304;19.028;2022-12-18T06:10:10;100159.19;;;-1.23;58.94
40982;BME280;26708;50.304;19.028;2022-12-18T06:12:15;100160.09;;;-1.23;58.87
40982;BME280;26708;50.304;19.028;2022-12-18T06:14:23;100131.47;;;-1.40;58.96
40982;BME280;26708;50.304;19.028;2022-12-18T06:16:28;100093.38;;;-1.59;58.88
40982;BME280;26708;50.304;19.028;2022-12-18T06:18:34;100028.88;;;-2.12;58.66
40982;BME280;26708;50.304;19.028;2022-12-18T06:20:39;100160.16;;;-1.21;58.52
40982;BME280;26708;50.304;19.028;2022-12-18T06:22:44;99929.72;;;-2.49;58.38
40982;BME280;26708;50.304;19.028;2022-12-18T06:24:48;100140.47;;;-1.34;58.43
40982;BME280;26708;50.304;19.028;2022-12-18T06:26:53;100107.84;;;-1.48;58.49
40982;BME280;26708;50.304;19.028;2022-12-18T06:28:58;100025.72;;;-2.08;58.58
40982;BME280;26708;50.304;19.028;2022-12-18T06:31:06;100021.03;;;-2.02;58.35
40982;BME280;26708;50.304;19.028;2022-12-18T06:33:12;100094.03;;;-1.61;58.39
40982;BME280;26708;50.304;19.028;2022-12-18T06:35:16;100181.25;;;-1.14;58.53
40982;BME280;26708;50.304;19.028;2022-12-18T06:37:21;100183.03;;;-1.13;58.40
40982;BME280;26708;50.304;19.028;2022-12-18T06:39:28;100075.84;;;-1.89;58.24
40982;BME280;26708;50.304;19.028;2022-12-18T06:41:32;99900.97;;;-2.93;58.27
40982;BME280;26708;50.304;19.028;2022-12-18T06:44:20;100215.31;;;-1.16;58.26
40982;BME280;26708;50.304;19.028;2022-12-18T06:47:18;99902.63;;;-2.93;58.33
40982;BME280;26708;50.304;19.028;2022-12-18T06:49:39;99887.19;;;-3.06;58.47
40982;BME280;26708;50.304;19.028;2022-12-18T06:52:00;99918.56;;;-2.97;58.59
40982;BME280;26708;50.304;19.028;2022-12-18T06:54:13;100051.06;;;-2.13;58.57
40982;BME280;26708;50.304;19.028;2022-12-18T06:56:23;100106.41;;;-1.92;58.54
40982;BME280;26708;50.304;19.028;2022-12-18T06:58:39;100120.88;;;-1.81;58.54
40982;BME280;26708;50.304;19.028;2022-12-18T07:00:44;100216.66;;;-1.21;58.68
40982;BME280;26708;50.304;19.028;2022-12-18T07:02:51;100181.88;;;-1.41;58.69
40982;BME280;26708;50.304;19.028;2022-12-18T07:04:56;100229.50;;;-1.21;58.89
40982;BME280;26708;50.304;19.028;2022-12-18T07:07:01;100208.53;;;-1.27;58.79
40982;BME280;26708;50.304;19.028;2022-12-18T07:09:05;100200.22;;;-1.36;58.65
40982;BME280;26708;50.304;19.028;2022-12-18T07:11:11;100230.72;;;-1.16;58.77
40982;BME280;26708;50.304;19.028;2022-12-18T07:13:16;100229.13;;;-1.14;58.89
40982;BME280;26708;50.304;19.028;2022-12-18T07:15:21;100236.06;;;-1.13;58.75
40982;BME280;26708;50.304;19.028;2022-12-18T07:17:26;100244.78;;;-1.11;58.73
40982;BME280;26708;50.304;19.028;2022-12-18T07:19:33;100081.66;;;-2.03;58.77
40982;BME280;26708;50.304;19.028;2022-12-18T07:21:38;100253.47;;;-1.09;58.69
40982;BME280;26708;50.304;19.028;2022-12-18T07:23:43;100223.94;;;-1.27;58.78
40982;BME280;26708;50.304;19.028;2022-12-18T07:25:48;100260.38;;;-1.08;58.88
40982;BME280;26708;50.304;19.028;2022-12-18T07:27:54;100206.34;;;-1.34;58.83
40982;BME280;26708;50.304;19.028;2022-12-18T07:29:59;100131.94;;;-1.93;58.49
40982;BME280;26708;50.304;19.028;2022-12-18T07:32:04;100115.88;;;-1.91;58.45
40982;BME280;26708;50.304;19.028;2022-12-18T07:34:10;100124.91;;;-1.96;58.46
40982;BME280;26708;50.304;19.028;2022-12-18T07:36:20;100153.53;;;-1.67;58.40
40982;BME280;26708;50.304;19.028;2022-12-18T07:38:24;100264.97;;;-1.04;58.53
40982;BME280;26708;50.304;19.028;2022-12-18T07:40:28;100226.25;;;-1.19;58.53
40982;BME280;26708;50.304;19.028;2022-12-18T07:42:34;100251.81;;;-1.09;58.41
40982;BME280;26708;50.304;19.028;2022-12-18T07:44:38;100232.28;;;-1.18;58.37
40982;BME280;26708;50.304;19.028;2022-12-18T07:46:43;100072.03;;;-2.18;58.29
40982;BME280;26708;50.304;19.028;2022-12-18T07:48:48;100160.66;;;-1.63;58.13
40982;BME280;26708;50.304;19.028;2022-12-18T07:50:52;100269.50;;;-1.00;58.29
40982;BME280;26708;50.304;19.028;2022-12-18T07:52:59;100149.28;;;-1.66;58.05
40982;BME280;26708;50.304;19.028;2022-12-18T07:55:07;100237.00;;;-1.24;58.05
40982;BME280;26708;50.304;19.028;2022-12-18T07:57:12;100273.03;;;-1.11;58.27
40982;BME280;26708;50.304;19.028;2022-12-18T07:59:17;100259.31;;;-1.23;58.24
40982;BME280;26708;50.304;19.028;2022-12-18T08:01:23;100260.09;;;-1.24;58.40
40982;BME280;26708;50.304;19.028;2022-12-18T08:03:27;100106.00;;;-2.21;58.33
40982;BME280;26708;50.304;19.028;2022-12-18T08:05:32;100270.47;;;-1.11;58.47
40982;BME280;26708;50.304;19.028;2022-12-18T08:07:37;100142.06;;;-1.95;58.41
40982;BME280;26708;50.304;19.028;2022-12-18T08:09:44;100110.56;;;-2.05;58.32
40982;BME280;26708;50.304;19.028;2022-12-18T08:11:49;100147.63;;;-1.77;58.17
40982;BME280;26708;50.304;19.028;2022-12-18T08:13:55;100220.31;;;-1.42;58.11
40982;BME280;26708;50.304;19.028;2022-12-18T08:16:01;100162.56;;;-1.72;58.14
40982;BME280;26708;50.304;19.028;2022-12-18T08:18:07;100155.41;;;-1.64;58.28
40982;BME280;26708;50.304;19.028;2022-12-18T08:20:12;100291.50;;;-0.92;58.04
40982;BME280;26708;50.304;19.028;2022-12-18T08:22:19;100263.91;;;-0.95;57.83
40982;BME280;26708;50.304;19.028;2022-12-18T08:24:23;100138.34;;;-1.64;57.77
40982;BME280;26708;50.304;19.028;2022-12-18T08:26:31;100215.53;;;-1.25;57.77
40982;BME280;26708;50.304;19.028;2022-12-18T08:28:36;100285.13;;;-0.86;57.67
40982;BME280;26708;50.304;19.028;2022-12-18T08:30:40;100285.22;;;-0.84;57.46
40982;BME280;26708;50.304;19.028;2022-12-18T08:32:45;100142.28;;;-1.69;57.37
40982;BME280;26708;50.304;19.028;2022-12-18T08:34:50;100203.00;;;-1.45;57.25
40982;BME280;26708;50.304;19.028;2022-12-18T08:36:54;100146.50;;;-1.69;57.16
40982;BME280;26708;50.304;19.028;2022-12-18T08:39:01;100259.03;;;-1.03;57.33
40982;BME280;26708;50.304;19.028;2022-12-18T08:41:08;100300.75;;;-0.83;57.21
40982;BME280;26708;50.304;19.028;2022-12-18T08:43:17;100133.81;;;-1.79;57.04
40982;BME280;26708;50.304;19.028;2022-12-18T08:45:35;100158.34;;;-1.71;57.15
40982;BME280;26708;50.304;19.028;2022-12-18T08:47:40;100104.06;;;-2.00;57.18
40982;BME280;26708;50.304;19.028;2022-12-18T08:49:44;100310.91;;;-0.84;57.22
40982;BME280;26708;50.304;19.028;2022-12-18T08:51:54;100304.13;;;-0.95;57.01
40982;BME280;26708;50.304;19.028;2022-12-18T08:53:58;100165.84;;;-1.86;57.18
40982;BME280;26708;50.304;19.028;2022-12-18T08:56:04;100131.06;;;-1.94;57.12
40982;BME280;26708;50.304;19.028;2022-12-18T08:58:10;100266.66;;;-1.16;57.14
40982;BME280;26708;50.304;19.028;2022-12-18T09:00:18;100104.09;;;-2.23;57.00
40982;BME280;26708;50.304;19.028;2022-12-18T09:02:23;100186.69;;;-1.81;57.17
40982;BME280;26708;50.304;19.028;2022-12-18T09:04:28;100082.63;;;-2.37;56.99
40982;BME280;26708;50.304;19.028;2022-12-18T09:06:33;100250.78;;;-1.47;57.15
40982;BME280;26708;50.304;19.028;2022-12-18T09:08:38;100195.81;;;-1.73;57.38
40982;BME280;26708;50.304;19.028;2022-12-18T09:10:45;100175.84;;;-1.77;57.22
40982;BME280;26708;50.304;19.028;2022-12-18T09:12:52;100063.03;;;-2.48;56.90
40982;BME280;26708;50.304;19.028;2022-12-18T09:14:57;100304.84;;;-1.09;57.15
40982;BME280;26708;50.304;19.028;2022-12-18T09:17:05;100134.84;;;-2.00;57.26
40982;BME280;26708;50.304;19.028;2022-12-18T09:19:10;100261.13;;;-1.45;57.05
40982;BME280;26708;50.304;19.028;2022-12-18T09:21:18;100090.19;;;-2.38;56.97
40982;BME280;26708;50.304;19.028;2022-12-18T09:23:25;100237.63;;;-1.51;57.18
40982;BME280;26708;50.304;19.028;2022-12-18T09:25:30;100208.16;;;-1.56;57.07
40982;BME280;26708;50.304;19.028;2022-12-18T09:27:36;100094.16;;;-2.07;57.11
40982;BME280;26708;50.304;19.028;2022-12-18T09:29:42;100298.53;;;-0.90;56.98
40982;BME280;26708;50.304;19.028;2022-12-18T09:31:47;100290.06;;;-1.00;57.01
40982;BME280;26708;50.304;19.028;2022-12-18T09:33:54;100346.00;;;-0.60;56.85
40982;BME280;26708;50.304;19.028;2022-12-18T09:36:02;100341.09;;;-0.57;56.69
40982;BME280;26708;50.304;19.028;2022-12-18T09:38:12;100231.19;;;-1.22;56.56
40982;BME280;26708;50.304;19.028;2022-12-18T09:40:22;100228.72;;;-1.20;56.50
40982;BME280;26708;50.304;19.028;2022-12-18T09:42:30;100329.72;;;-0.61;56.59
40982;BME280;26708;50.304;19.028;2022-12-18T09:44:39;100279.09;;;-0.86;56.40
40982;BME280;26708;50.304;19.028;2022-12-18T09:46:55;100215.34;;;-1.28;56.31
40982;BME280;26708;50.304;19.028;2022-12-18T09:49:14;100260.69;;;-1.04;55.91
40982;BME280;26708;50.304;19.028;2022-12-18T09:51:26;100293.78;;;-0.72;55.94
40982;BME280;26708;50.304;19.028;2022-12-18T09:53:39;100179.19;;;-1.31;55.74
40982;BME280;26708;50.304;19.028;2022-12-18T09:55:51;100210.28;;;-1.15;55.58
40982;BME280;26708;50.304;19.028;2022-12-18T09:58:04;100292.63;;;-0.64;55.54
40982;BME280;26708;50.304;19.028;2022-12-18T10:00:21;100202.16;;;-1.21;55.60
40982;BME280;26708;50.304;19.028;2022-12-18T10:02:31;100262.75;;;-0.87;55.55
40982;BME280;26708;50.304;19.028;2022-12-18T10:04:38;100232.25;;;-1.07;55.39
40982;BME280;26708;50.304;19.028;2022-12-18T10:06:50;100347.34;;;-0.29;55.35
40982;BME280;26708;50.304;19.028;2022-12-18T10:09:09;100294.97;;;-0.67;55.28
40982;BME280;26708;50.304;19.028;2022-12-18T10:11:36;100114.25;;;-1.66;55.36
40982;BME280;26708;50.304;19.028;2022-12-18T10:13:53;100302.19;;;-0.50;55.43
40982;BME280;26708;50.304;19.028;2022-12-18T10:16:12;100174.16;;;-1.29;55.34
40982;BME280;26708;50.304;19.028;2022-12-18T10:18:35;100039.97;;;-2.00;55.02
40982;BME280;26708;50.304;19.028;2022-12-18T10:20:58;100098.97;;;-1.64;54.50
40982;BME280;26708;50.304;19.028;2022-12-18T10:23:17;100205.63;;;-0.96;54.79
40982;BME280;26708;50.304;19.028;2022-12-18T10:25:34;100329.75;;;-0.23;54.61
40982;BME280;26708;50.304;19.028;2022-12-18T10:27:46;100330.88;;;-0.20;54.54
40982;BME280;26708;50.304;19.028;2022-12-18T10:29:53;100098.16;;;-1.52;54.71
40982;BME280;26708;50.304;19.028;2022-12-18T10:31:57;100283.59;;;-0.46;54.84
40982;BME280;26708;50.304;19.028;2022-12-18T10:34:02;100128.34;;;-1.36;54.99
40982;BME280;26708;50.304;19.028;2022-12-18T10:36:10;100178.84;;;-0.99;55.13
40982;BME280;26708;50.304;19.028;2022-12-18T10:38:25;100238.66;;;-0.64;55.09
40982;BME280;26708;50.304;19.028;2022-12-18T10:40:31;100325.22;;;-0.14;55.35
40982;BME280;26708;50.304;19.028;2022-12-18T10:42:37;100132.47;;;-1.14;55.13
40982;BME280;26708;50.304;19.028;2022-12-18T10:44:43;100310.78;;;-0.12;54.87
40982;BME280;26708;50.304;19.028;2022-12-18T10:46:50;100164.38;;;-1.10;54.83
40982;BME280;26708;50.304;19.028;2022-12-18T10:48:59;100075.22;;;-1.62;54.76
40982;BME280;26708;50.304;19.028;2022-12-18T10:51:04;100141.75;;;-1.16;54.84
40982;BME280;26708;50.304;19.028;2022-12-18T10:53:20;100256.00;;;-0.49;55.23
40982;BME280;26708;50.304;19.028;2022-12-18T10:55:32;100277.41;;;-0.37;54.93
40982;BME280;26708;50.304;19.028;2022-12-18T10:57:40;100233.59;;;-0.63;54.97
40982;BME280;26708;50.304;19.028;2022-12-18T10:59:53;100260.78;;;-0.42;55.24
40982;BME280;26708;50.304;19.028;2022-12-18T11:02:00;100302.00;;;-0.16;55.25
40982;BME280;26708;50.304;19.028;2022-12-18T11:04:09;100163.97;;;-0.92;55.00
40982;BME280;26708;50.304;19.028;2022-12-18T11:06:19;100229.91;;;-0.42;54.81
40982;BME280;26708;50.304;19.028;2022-12-18T11:08:29;100254.63;;;-0.19;54.58